WetterOnline ( https://www.wetteronline.de )

Wetter aktuell Seeon

Aktuelles Wetter: Chieming (553m)

6-stündlich | Neueste Meldungen
Ortszeit Temperatur Wetter
Mi, 08.07. 8:00 14.5° C wolkenlos
Mi, 08.07. 2:00 10.9° C wolkenlos
Di, 07.07. 20:00 19.0° C wolkenlos
Di, 07.07. 14:00 18.0° C wolkenlos
Di, 07.07. 8:00 13.0° C bedeckt
Di, 07.07. 2:00 14.7° C bewölkt
Mo, 06.07. 20:00 17.6° C bedeckt
Mo, 06.07. 14:00 18.2° C bedeckt
Ortszeit Temperatur Wetter
Mi, 08.07. 14:00 22.2° C leicht bewölkt
Mi, 08.07. 13:30 22.0° C fast wolkenlos
Mi, 08.07. 13:20 22.0° C fast wolkenlos
Mi, 08.07. 13:10 21.7° C fast wolkenlos
Mi, 08.07. 13:00 21.5° C wolkenlos
Mi, 08.07. 12:50 21.5° C wolkenlos
Mi, 08.07. 12:30 21.3° C wolkenlos
Mi, 08.07. 12:00 20.7° C wolkenlos
Mi, 08.07. 11:30 20.3° C wolkenlos
Mi, 08.07. 11:00 20.0° C wolkenlos
Mi, 08.07. 10:30 19.6° C fast wolkenlos
Ortszeit Relative Feuchte Sichtweite
Mi, 08.07. 8:00 74% 45 km
Mi, 08.07. 2:00 82% 50 km
Di, 07.07. 20:00 45% 55 km
Di, 07.07. 14:00 47% 60 km
Di, 07.07. 8:00 67% 55 km
Di, 07.07. 2:00 57% 50 km
Mo, 06.07. 20:00 61% >70 km
Mo, 06.07. 14:00 75% 55 km
Ortszeit Relative Feuchte Sichtweite
Mi, 08.07. 14:00 45% 60 km
Mi, 08.07. 13:30 47% 50 km
Mi, 08.07. 13:20 47% -
Mi, 08.07. 13:10 48% -
Mi, 08.07. 13:00 47% 50 km
Mi, 08.07. 12:50 47% -
Mi, 08.07. 12:30 50% 45 km
Mi, 08.07. 12:00 52% 50 km
Mi, 08.07. 11:30 50% 45 km
Mi, 08.07. 11:00 50% >70 km
Mi, 08.07. 10:30 49% 60 km
Ortszeit Niederschlagsmenge Niederschlagsart
Mi, 08.07. 8:00 0.0 l/m2 in 12 Std. -
Mi, 08.07. 2:00 0.0 l/m2 in 6 Std. -
Di, 07.07. 20:00 0.0 l/m2 in 12 Std. -
Di, 07.07. 14:00 0.0 l/m2 in 6 Std. -
Di, 07.07. 8:00 0.0 l/m2 in 12 Std. -
Di, 07.07. 2:00 0.0 l/m2 in 6 Std. -
Mo, 06.07. 20:00 0.3 l/m2 in 12 Std. Regen
Mo, 06.07. 14:00 0.0 l/m2 in 6 Std. -
Ortszeit Niederschlagsmenge Niederschlagsart
Mi, 08.07. 14:00 keine Meldung -
Mi, 08.07. 13:30 0.0 l/m2 in 1 Std. -
Mi, 08.07. 13:20 keine Meldung -
Mi, 08.07. 13:10 keine Meldung -
Mi, 08.07. 13:00 0.0 l/m2 in 1 Std. -
Mi, 08.07. 12:50 keine Meldung -
Mi, 08.07. 12:30 0.0 l/m2 in 1 Std. -
Mi, 08.07. 12:00 0.0 l/m2 in 1 Std. -
Mi, 08.07. 11:30 0.0 l/m2 in 1 Std. -
Mi, 08.07. 11:00 0.0 l/m2 in 1 Std. -
Mi, 08.07. 10:30 0.0 l/m2 in 1 Std. -
Ortszeit Stärke Spitze Richtung
km/h Bft. km/h Grad Sektor
Mi, 08.07. 8:00 7 2 14 200° S
Mi, 08.07. 2:00 7 2 11 100° O
Di, 07.07. 20:00 7 2 18 340° N
Di, 07.07. 14:00 11 2 18 280° W
Di, 07.07. 8:00 9 2 30 290° W
Di, 07.07. 2:00 14 3 40 300° NW
Mo, 06.07. 20:00 19 3 39 240° SW
Mo, 06.07. 14:00 13 3 46 310° NW
Ortszeit Stärke Spitze Richtung
km/h Bft. km/h Grad Sektor
Mi, 08.07. 14:00 13 3 28 260° W
Mi, 08.07. 13:30 13 3 22 260° W
Mi, 08.07. 13:20 13 3 - 260° W
Mi, 08.07. 13:10 11 2 - 260° W
Mi, 08.07. 13:00 11 2 25 260° W
Mi, 08.07. 12:50 11 2 - 260° W
Mi, 08.07. 12:30 14 3 25 280° W
Mi, 08.07. 12:00 14 3 29 270° W
Mi, 08.07. 11:30 18 3 29 280° W
Mi, 08.07. 11:00 18 3 29 280° W
Mi, 08.07. 10:30 18 3 29 270° W
Ortszeit Untergrenze Bedeckung Gattung
total tief tief mittel hoch
Mi, 08.07. 8:00 - 0/8 0/8 - - -
Mi, 08.07. 2:00 - 0/8 0/8 - - -
Di, 07.07. 20:00 - 0/8 0/8 - - -
Di, 07.07. 14:00 - 0/8 0/8 - - -
Di, 07.07. 8:00 1470 m 8/8 8/8 - - -
Di, 07.07. 2:00 2700 m 7/8 7/8 - - -
Mo, 06.07. 20:00 1170 m 8/8 8/8 - - -
Mo, 06.07. 14:00 660 m 8/8 8/8 - - -
Ortszeit Bedeckungsgrad in Achtel und Wolkenuntergrenze
Mi, 08.07. 14:00 4(4800m)
Mi, 08.07. 13:30 1(10500m)
Mi, 08.07. 13:20 1(10500m)
Mi, 08.07. 13:10 1(10500m)
Mi, 08.07. 13:00 2(10500m)
Mi, 08.07. 12:50 keine Wolken
Mi, 08.07. 12:30 keine Wolken
Mi, 08.07. 12:00 keine Wolken
Mi, 08.07. 11:30 keine Wolken
Mi, 08.07. 11:00 keine Wolken
Mi, 08.07. 10:30 1(9000m)
Ortszeit Luftdruck NN (hPa) Tendenz (hPa in 3 Std.)
Mi, 08.07. 8:00 1018 + 0,5
Mi, 08.07. 2:00 1020 - 0,3
Di, 07.07. 20:00 1017 - 0,7
Di, 07.07. 14:00 1020 - 1,3
Di, 07.07. 8:00 1023 + 0,7
Di, 07.07. 2:00 1021 + 0,9
Mo, 06.07. 20:00 1016 + 0,8
Mo, 06.07. 14:00 1015 + 1,5
Ortszeit Luftdruck NN (hPa) Tendenz (hPa in 3 Std.)
Mi, 08.07. 14:00 1015 - 0,9
Mi, 08.07. 13:30 1016 - 0,9
Mi, 08.07. 13:20 1016 keine Meldung
Mi, 08.07. 13:10 1016 keine Meldung
Mi, 08.07. 13:00 1016 - 0,5
Mi, 08.07. 12:50 1016 keine Meldung
Mi, 08.07. 12:30 1016 - 0,6
Mi, 08.07. 12:00 1016 - 0,6
Mi, 08.07. 11:30 1017 - 0,2
Mi, 08.07. 11:00 1017 - 0,2
Mi, 08.07. 10:30 1017 + 0,1
Ortszeit Schneehöhe (cm)
Mi, 08.07. 8:00 -
Mi, 08.07. 2:00 -
Di, 07.07. 20:00 -
Di, 07.07. 14:00 -
Di, 07.07. 8:00 -
Di, 07.07. 2:00 -
Mo, 06.07. 20:00 -
Mo, 06.07. 14:00 -
Ortszeit Schneehöhe (cm)
Mi, 08.07. 14:00 -
Mi, 08.07. 13:30 -
Mi, 08.07. 13:20 -
Mi, 08.07. 13:10 -
Mi, 08.07. 13:00 -
Mi, 08.07. 12:50 -
Mi, 08.07. 12:30 -
Mi, 08.07. 12:00 -
Mi, 08.07. 11:30 -
Mi, 08.07. 11:00 -
Mi, 08.07. 10:30 -
Link zu dieser Seite / Seite empfehlen

Das Wetter in ...